Time;durP1;ratioP1;P1;durP2;ratioP2;P2;SDS_P1;SDS_P2;PMS_P1;PMS_P2;Temp;Humidity;BMP_temperature;BMP_pressure;BME280_temperature;BME280_humidity;BME280_pressure;Samples;Min_cycle;Max_cycle;Signal;HPM_P1;HPM_P2
2021/08/14 00:02:19;;;;;;;6.53;3.95;;;;;;;;;;10529533;28;20567;-86
2021/08/14 00:07:20;;;;;;;7.22;3.88;;;;;;;;;;10530138;28;20028;-86
2021/08/14 00:12:21;;;;;;;6.18;4.30;;;;;;;;;;10531810;28;20383;-86
2021/08/14 00:17:22;;;;;;;6.25;3.80;;;;;;;;;;10531559;28;20111;-86
2021/08/14 00:22:23;;;;;;;6.25;4.35;;;;;;;;;;10547802;28;20035;-86
2021/08/14 00:27:24;;;;;;;5.32;4.10;;;;;;;;;;10574259;28;20012;-87
2021/08/14 00:32:25;;;;;;;9.75;4.22;;;;;;;;;;10573708;28;20020;-86
2021/08/14 00:37:26;;;;;;;6.03;4.22;;;;;;;;;;10560221;28;20127;-86
2021/08/14 00:42:27;;;;;;;6.65;4.40;;;;;;;;;;10537834;28;20039;-87
2021/08/14 00:47:28;;;;;;;5.97;3.95;;;;;;;;;;10534045;28;20028;-86
2021/08/14 00:52:29;;;;;;;6.40;4.15;;;;;;;;;;10536533;28;20110;-86
2021/08/14 00:57:30;;;;;;;4.75;3.60;;;;;;;;;;10537823;28;20036;-85
2021/08/14 01:02:31;;;;;;;5.70;4.07;;;;;;;;;;10550201;28;20032;-85
2021/08/14 01:07:32;;;;;;;4.63;3.67;;;;;;;;;;10549933;28;20031;-86
2021/08/14 01:12:33;;;;;;;5.05;3.78;;;;;;;;;;10548981;28;20028;-85
2021/08/14 01:17:36;;;;;;;5.38;3.17;;;;;;;;;;10549152;28;20039;-86
2021/08/14 01:22:38;;;;;;;6.15;4.40;;;;;;;;;;10549012;28;20032;-86
2021/08/14 01:27:39;;;;;;;5.00;3.78;;;;;;;;;;10549809;28;20093;-86
2021/08/14 01:32:40;;;;;;;6.00;3.80;;;;;;;;;;10548940;28;20031;-86
2021/08/14 01:37:41;;;;;;;6.00;3.95;;;;;;;;;;10546861;28;20035;-86
2021/08/14 01:42:42;;;;;;;5.25;3.88;;;;;;;;;;10535127;28;20127;-89
2021/08/14 01:47:43;;;;;;;5.72;3.72;;;;;;;;;;10524346;28;20118;-88
2021/08/14 01:52:44;;;;;;;6.20;3.85;;;;;;;;;;10524234;28;20028;-88
2021/08/14 01:57:45;;;;;;;5.65;3.75;;;;;;;;;;10526817;28;20122;-88
2021/08/14 02:02:46;;;;;;;7.07;4.20;;;;;;;;;;10527214;28;20028;-88
2021/08/14 02:07:47;;;;;;;5.47;4.13;;;;;;;;;;10531526;28;20094;-88
2021/08/14 02:12:48;;;;;;;5.28;3.85;;;;;;;;;;10535860;28;20133;-88
2021/08/14 02:17:49;;;;;;;6.75;4.10;;;;;;;;;;10554555;28;20109;-88
2021/08/14 02:22:50;;;;;;;5.78;4.32;;;;;;;;;;10539718;28;20060;-88
2021/08/14 02:27:51;;;;;;;6.82;4.45;;;;;;;;;;10537863;28;20395;-88
2021/08/14 02:32:52;;;;;;;5.15;3.75;;;;;;;;;;10535179;28;20031;-88
2021/08/14 02:37:53;;;;;;;5.32;4.05;;;;;;;;;;10537309;28;20012;-88
2021/08/14 02:42:54;;;;;;;6.40;4.00;;;;;;;;;;10534655;28;20437;-88
2021/08/14 02:47:56;;;;;;;5.90;4.00;;;;;;;;;;10534515;28;20039;-88
2021/08/14 02:52:57;;;;;;;6.47;3.60;;;;;;;;;;10534534;28;20468;-88
2021/08/14 02:57:58;;;;;;;5.90;4.10;;;;;;;;;;10534926;28;20450;-88
2021/08/14 03:02:59;;;;;;;5.68;4.07;;;;;;;;;;10533450;28;20058;-88
2021/08/14 03:08:00;;;;;;;5.32;3.97;;;;;;;;;;10534310;28;20027;-88
2021/08/14 03:13:01;;;;;;;7.28;4.00;;;;;;;;;;10533286;28;20027;-88
2021/08/14 03:18:02;;;;;;;5.40;3.75;;;;;;;;;;10550507;28;20027;-88
2021/08/14 03:23:04;;;;;;;5.38;4.10;;;;;;;;;;10532837;28;20024;-89
2021/08/14 03:28:05;;;;;;;5.80;4.22;;;;;;;;;;10533941;28;20025;-86
2021/08/14 03:33:06;;;;;;;6.03;3.70;;;;;;;;;;10543048;28;20028;-86
2021/08/14 03:38:07;;;;;;;5.10;3.85;;;;;;;;;;10543629;28;20031;-86
2021/08/14 03:43:07;;;;;;;6.30;4.40;;;;;;;;;;10544890;28;20035;-87
2021/08/14 03:48:08;;;;;;;5.40;3.90;;;;;;;;;;10547611;28;20032;-86
2021/08/14 03:53:09;;;;;;;6.15;4.45;;;;;;;;;;10563278;28;20024;-86
2021/08/14 03:58:10;;;;;;;6.30;4.47;;;;;;;;;;10568406;28;20024;-86
2021/08/14 04:03:11;;;;;;;7.43;4.82;;;;;;;;;;10544021;28;20060;-86
2021/08/14 04:08:12;;;;;;;5.72;4.47;;;;;;;;;;10543299;28;20024;-86
2021/08/14 04:13:13;;;;;;;6.85;5.03;;;;;;;;;;10543738;28;20047;-84
2021/08/14 04:18:14;;;;;;;6.03;4.80;;;;;;;;;;10558123;28;20084;-85
2021/08/14 04:23:15;;;;;;;8.02;4.32;;;;;;;;;;10558716;28;20101;-86
2021/08/14 04:28:16;;;;;;;6.57;4.68;;;;;;;;;;10555215;28;20030;-85
2021/08/14 04:33:17;;;;;;;6.78;4.80;;;;;;;;;;10553947;28;20040;-88
2021/08/14 04:38:18;;;;;;;7.05;5.18;;;;;;;;;;10531123;28;20032;-88
2021/08/14 04:43:19;;;;;;;5.63;4.38;;;;;;;;;;10531204;28;20115;-88
2021/08/14 04:48:20;;;;;;;5.25;4.13;;;;;;;;;;10542775;28;20058;-86
2021/08/14 04:53:21;;;;;;;7.00;5.00;;;;;;;;;;10543684;28;20055;-86
2021/08/14 04:58:22;;;;;;;6.43;4.60;;;;;;;;;;10543724;28;20518;-86
2021/08/14 05:03:22;;;;;;;7.72;5.40;;;;;;;;;;10543110;28;20035;-87
2021/08/14 05:08:23;;;;;;;8.85;5.82;;;;;;;;;;10543009;28;20016;-86
2021/08/14 05:13:24;;;;;;;7.93;5.55;;;;;;;;;;10542086;28;20088;-85
2021/08/14 05:18:25;;;;;;;5.72;4.53;;;;;;;;;;10542501;28;20097;-86
2021/08/14 05:23:26;;;;;;;8.65;6.07;;;;;;;;;;10541031;28;20407;-86
2021/08/14 05:28:27;;;;;;;6.00;4.97;;;;;;;;;;10540935;28;20404;-86
2021/08/14 05:33:28;;;;;;;10.35;6.45;;;;;;;;;;10539386;28;20023;-87
2021/08/14 05:38:29;;;;;;;26.52;7.70;;;;;;;;;;10527946;28;20028;-88
2021/08/14 05:43:30;;;;;;;7.30;4.57;;;;;;;;;;10527327;28;20077;-88
2021/08/14 05:48:31;;;;;;;7.32;5.20;;;;;;;;;;10547699;28;20568;-88
2021/08/14 05:53:32;;;;;;;8.75;5.40;;;;;;;;;;10551728;28;20032;-87
2021/08/14 05:58:33;;;;;;;7.43;5.28;;;;;;;;;;10547390;28;20035;-88
2021/08/14 06:03:35;;;;;;;7.90;5.28;;;;;;;;;;10556982;28;20028;-88
2021/08/14 06:08:37;;;;;;;8.27;5.72;;;;;;;;;;10557559;28;20061;-88
2021/08/14 06:13:38;;;;;;;11.98;8.02;;;;;;;;;;10552567;28;20028;-86
2021/08/14 06:18:41;;;;;;;6.90;4.63;;;;;;;;;;10554431;28;20087;-87
2021/08/14 06:23:42;;;;;;;11.90;7.55;;;;;;;;;;10558070;28;20126;-86
2021/08/14 06:28:43;;;;;;;9.50;7.05;;;;;;;;;;10547270;28;20380;-85
2021/08/14 06:33:50;;;;;;;10.60;6.97;;;;;;;;;;10548464;28;20119;-86
2021/08/14 06:38:51;;;;;;;9.93;6.97;;;;;;;;;;10532336;28;20028;-86
2021/08/14 06:43:58;;;;;;;8.07;5.70;;;;;;;;;;10527269;28;20024;-86
2021/08/14 06:48:59;;;;;;;10.10;5.95;;;;;;;;;;10528624;28;20032;-86
2021/08/14 06:54:00;;;;;;;11.05;6.90;;;;;;;;;;10534212;28;20031;-86
2021/08/14 06:59:04;;;;;;;12.15;6.88;;;;;;;;;;10536916;28;20050;-89
2021/08/14 07:04:06;;;;;;;7.53;4.28;;;;;;;;;;10539455;28;20360;-87
2021/08/14 07:09:07;;;;;;;6.18;4.43;;;;;;;;;;10544890;28;20020;-84
2021/08/14 07:14:18;;;;;;;6.32;4.25;;;;;;;;;;10557380;28;20109;-85
2021/08/14 07:19:19;;;;;;;9.27;4.90;;;;;;;;;;10542873;28;20043;-85
2021/08/14 07:24:20;;;;;;;12.10;4.95;;;;;;;;;;10541526;28;20118;-85
2021/08/14 07:29:21;;;;;;;10.52;5.18;;;;;;;;;;10540078;28;20040;-85
2021/08/14 07:34:24;;;;;;;8.90;4.93;;;;;;;;;;10542031;28;20148;-85
2021/08/14 07:39:25;;;;;;;8.57;4.78;;;;;;;;;;10559010;28;20027;-86
2021/08/14 07:44:26;;;;;;;7.68;4.63;;;;;;;;;;10568093;28;20027;-87
2021/08/14 07:49:48;;;;;;;6.97;4.40;;;;;;;;;;10565439;28;20143;-87
2021/08/14 07:54:49;;;;;;;6.80;4.20;;;;;;;;;;10546170;28;20474;-87
2021/08/14 08:00:19;;;;;;;10.90;5.40;;;;;;;;;;10543457;28;20028;-85
2021/08/14 08:05:21;;;;;;;9.18;4.20;;;;;;;;;;10537382;28;20024;-86
2021/08/14 08:10:22;;;;;;;10.38;5.47;;;;;;;;;;10540267;28;20031;-87
2021/08/14 08:15:39;;;;;;;9.43;4.43;;;;;;;;;;10534319;28;20384;-86
2021/08/14 08:20:44;;;;;;;7.55;3.75;;;;;;;;;;10533438;28;20388;-85
2021/08/14 08:26:04;;;;;;;12.48;4.45;;;;;;;;;;10534062;28;20059;-86
2021/08/14 08:31:11;;;;;;;10.30;4.75;;;;;;;;;;10538836;28;20032;-86
2021/08/14 08:36:24;;;;;;;8.05;4.40;;;;;;;;;;10533039;28;20056;-87
2021/08/14 08:41:40;;;;;;;9.82;4.28;;;;;;;;;;10540804;28;20049;-87
2021/08/14 08:46:42;;;;;;;9.55;3.70;;;;;;;;;;10533614;28;20021;-86
2021/08/14 08:51:55;;;;;;;7.93;3.35;;;;;;;;;;10556097;28;20044;-86
2021/08/14 08:56:56;;;;;;;9.27;3.92;;;;;;;;;;10536332;28;20034;-86
2021/08/14 09:02:26;;;;;;;5.63;3.38;;;;;;;;;;10531405;28;20056;-86
2021/08/14 09:07:57;;;;;;;8.73;3.80;;;;;;;;;;10518776;28;20025;-87
2021/08/14 09:13:01;;;;;;;6.45;3.30;;;;;;;;;;10493711;28;20033;-86
2021/08/14 10:42:52;;;;;;;5.57;2.72;;;;;;;;;;10198950;28;20035;-87
2021/08/14 10:53:58;;;;;;;5.47;2.80;;;;;;;;;;10311739;28;20114;-84
2021/08/14 10:59:53;;;;;;;5.30;2.63;;;;;;;;;;10186279;29;20020;-87
2021/08/14 11:22:21;;;;;;;5.55;2.90;;;;;;;;;;10313873;28;20122;-84
2021/08/14 11:33:40;;;;;;;4.53;2.40;;;;;;;;;;10265100;28;20186;-83
2021/08/14 11:38:45;;;;;;;5.82;3.13;;;;;;;;;;10247253;28;20122;-84
2021/08/14 12:06:29;;;;;;;8.63;3.22;;;;;;;;;;10308937;28;20030;-85
2021/08/14 12:11:59;;;;;;;4.82;2.88;;;;;;;;;;10295508;28;20058;-87
2021/08/14 12:39:48;;;;;;;4.90;2.60;;;;;;;;;;10317709;28;20130;-86
2021/08/14 12:44:49;;;;;;;4.55;2.70;;;;;;;;;;10307804;28;20038;-87
2021/08/14 12:55:58;;;;;;;5.60;3.03;;;;;;;;;;10310487;28;20038;-86
2021/08/14 13:00:59;;;;;;;6.13;3.63;;;;;;;;;;10313525;28;20046;-87
2021/08/14 13:06:00;;;;;;;7.10;3.75;;;;;;;;;;10282901;28;20035;-86
2021/08/14 13:11:01;;;;;;;5.97;2.90;;;;;;;;;;10287541;28;20077;-86
2021/08/14 13:16:02;;;;;;;5.07;3.10;;;;;;;;;;10293102;28;20035;-86
2021/08/14 13:21:07;;;;;;;7.72;3.33;;;;;;;;;;10297131;28;20102;-86
2021/08/14 13:26:08;;;;;;;8.57;3.13;;;;;;;;;;10297500;28;20554;-88
2021/08/14 13:31:09;;;;;;;6.22;2.88;;;;;;;;;;10291344;28;20113;-86
2021/08/14 13:36:10;;;;;;;6.50;3.45;;;;;;;;;;10284365;28;20043;-86
2021/08/14 13:41:12;;;;;;;7.30;3.50;;;;;;;;;;10311973;28;20125;-89
2021/08/14 13:46:13;;;;;;;6.97;3.05;;;;;;;;;;10285801;28;20035;-88
2021/08/14 13:51:14;;;;;;;7.00;3.60;;;;;;;;;;10281825;28;20031;-87
2021/08/14 13:56:15;;;;;;;7.80;3.20;;;;;;;;;;10285709;28;20487;-90
2021/08/14 14:01:16;;;;;;;6.53;3.28;;;;;;;;;;10283743;28;20045;-87
2021/08/14 14:06:20;;;;;;;7.15;3.22;;;;;;;;;;10286481;28;20130;-86
2021/08/14 14:11:22;;;;;;;6.63;3.10;;;;;;;;;;10291297;28;20129;-86
2021/08/14 14:16:23;;;;;;;8.07;3.22;;;;;;;;;;10292369;28;20035;-87
2021/08/14 14:21:24;;;;;;;7.15;3.40;;;;;;;;;;10285058;28;20403;-87
2021/08/14 14:26:25;;;;;;;5.72;3.08;;;;;;;;;;10288310;28;20035;-88
2021/08/14 14:31:26;;;;;;;34.53;30.90;;;;;;;;;;10283142;28;20042;-88
2021/08/14 14:36:27;;;;;;;10.13;3.92;;;;;;;;;;10282387;28;20345;-88
2021/08/14 14:41:28;;;;;;;7.53;3.58;;;;;;;;;;10321719;28;20066;-89
2021/08/14 14:46:29;;;;;;;9.45;3.75;;;;;;;;;;10341423;28;20019;-84
2021/08/14 14:51:32;;;;;;;7.95;3.60;;;;;;;;;;10321874;28;20026;-88
2021/08/14 14:56:35;;;;;;;7.28;3.53;;;;;;;;;;10306897;28;20042;-89
2021/08/14 15:01:37;;;;;;;6.20;3.33;;;;;;;;;;10298115;28;20058;-85
2021/08/14 15:06:38;;;;;;;8.25;3.80;;;;;;;;;;10307055;28;20097;-88
2021/08/14 15:11:39;;;;;;;6.28;3.38;;;;;;;;;;10282432;28;20092;-87
2021/08/14 15:16:40;;;;;;;9.02;4.03;;;;;;;;;;10305843;28;20023;-86
2021/08/14 15:21:41;;;;;;;8.38;4.00;;;;;;;;;;10326722;28;20046;-86
2021/08/14 15:26:42;;;;;;;9.73;4.70;;;;;;;;;;10318194;28;20082;-87
2021/08/14 15:31:43;;;;;;;7.85;4.25;;;;;;;;;;10297818;28;20055;-87
2021/08/14 15:36:44;;;;;;;6.60;4.55;;;;;;;;;;10288326;28;20035;-87
2021/08/14 15:41:45;;;;;;;9.20;5.00;;;;;;;;;;10287194;28;20047;-87
2021/08/14 15:46:46;;;;;;;9.30;4.68;;;;;;;;;;10306910;28;20054;-86
2021/08/14 15:51:47;;;;;;;10.95;6.18;;;;;;;;;;10312604;28;20518;-86
2021/08/14 15:56:48;;;;;;;12.38;7.53;;;;;;;;;;10309051;28;20530;-86
2021/08/14 16:01:49;;;;;;;8.00;5.53;;;;;;;;;;10302823;28;20035;-88
2021/08/14 16:06:50;;;;;;;11.13;7.20;;;;;;;;;;10287583;28;20030;-87
2021/08/14 16:11:51;;;;;;;9.65;6.63;;;;;;;;;;10304198;28;20038;-88
2021/08/14 16:16:52;;;;;;;12.38;7.85;;;;;;;;;;10299876;28;20034;-85
2021/08/14 16:21:53;;;;;;;12.25;7.03;;;;;;;;;;10311970;28;20043;-87
2021/08/14 16:26:54;;;;;;;12.30;7.40;;;;;;;;;;10311786;28;20030;-86
2021/08/14 16:31:55;;;;;;;12.15;7.53;;;;;;;;;;10309479;28;20092;-89
2021/08/14 16:36:56;;;;;;;13.13;7.53;;;;;;;;;;10284499;28;20129;-89
2021/08/14 16:41:58;;;;;;;11.80;8.55;;;;;;;;;;10283063;28;20181;-88
2021/08/14 16:46:59;;;;;;;13.30;8.93;;;;;;;;;;10283152;28;20030;-88
2021/08/14 16:52:00;;;;;;;12.93;9.40;;;;;;;;;;10282566;28;20125;-88
2021/08/14 16:57:01;;;;;;;12.35;8.45;;;;;;;;;;10281740;28;20037;-88
2021/08/14 17:02:02;;;;;;;16.65;9.48;;;;;;;;;;10282928;28;20050;-88
2021/08/14 17:07:03;;;;;;;14.20;9.82;;;;;;;;;;10282601;28;20185;-87
2021/08/14 17:12:05;;;;;;;12.52;8.57;;;;;;;;;;10282816;28;20030;-87
2021/08/14 17:17:06;;;;;;;17.25;10.13;;;;;;;;;;10281071;28;20026;-88
2021/08/14 17:22:06;;;;;;;15.65;10.60;;;;;;;;;;10280577;28;20038;-88
2021/08/14 17:27:08;;;;;;;14.93;9.93;;;;;;;;;;10297262;28;20031;-88
2021/08/14 17:32:09;;;;;;;18.17;11.93;;;;;;;;;;10280450;28;20035;-86
2021/08/14 17:37:10;;;;;;;19.27;11.65;;;;;;;;;;10280532;28;20042;-87
2021/08/14 17:42:11;;;;;;;15.80;10.50;;;;;;;;;;10280906;28;20130;-87
2021/08/14 17:47:12;;;;;;;15.45;10.05;;;;;;;;;;10280781;28;20106;-86
2021/08/14 17:52:13;;;;;;;17.88;10.05;;;;;;;;;;10280602;28;20419;-87
2021/08/14 17:57:14;;;;;;;15.98;10.05;;;;;;;;;;10289381;28;20167;-87
2021/08/14 18:02:17;;;;;;;15.90;9.70;;;;;;;;;;10287836;28;20174;-86
2021/08/14 18:07:18;;;;;;;13.40;8.95;;;;;;;;;;10285386;28;20085;-86
2021/08/14 18:12:19;;;;;;;13.70;9.43;;;;;;;;;;10282874;28;20526;-86
2021/08/14 18:17:20;;;;;;;11.18;7.97;;;;;;;;;;10281341;28;20046;-87
2021/08/14 18:22:21;;;;;;;11.55;7.68;;;;;;;;;;10278875;28;20515;-87
2021/08/14 18:27:22;;;;;;;14.30;8.82;;;;;;;;;;10279253;28;20103;-87
2021/08/14 18:32:23;;;;;;;13.05;8.30;;;;;;;;;;10279734;28;20154;-88
2021/08/14 18:37:24;;;;;;;10.65;7.85;;;;;;;;;;10297869;28;20569;-88
2021/08/14 18:42:25;;;;;;;12.23;7.30;;;;;;;;;;10280259;28;20126;-88
2021/08/14 18:47:26;;;;;;;10.90;7.55;;;;;;;;;;10279670;28;20122;-88
2021/08/14 18:52:29;;;;;;;14.25;6.82;;;;;;;;;;10286084;28;20035;-88
2021/08/14 18:57:30;;;;;;;10.93;6.90;;;;;;;;;;10285863;28;20035;-88
2021/08/14 19:02:31;;;;;;;10.73;6.65;;;;;;;;;;10287614;28;20377;-87
2021/08/14 19:07:32;;;;;;;10.13;6.80;;;;;;;;;;10294447;28;20078;-88
2021/08/14 19:12:33;;;;;;;10.35;6.40;;;;;;;;;;10313700;28;20045;-88
2021/08/14 19:17:34;;;;;;;12.00;7.00;;;;;;;;;;10315083;28;20487;-88
2021/08/14 19:22:35;;;;;;;9.40;6.88;;;;;;;;;;10284911;28;20117;-87
2021/08/14 19:27:36;;;;;;;11.07;8.20;;;;;;;;;;10285640;28;20035;-87
2021/08/14 19:32:37;;;;;;;8.32;6.10;;;;;;;;;;10285134;28;20484;-87
2021/08/14 19:37:38;;;;;;;9.65;6.60;;;;;;;;;;10287162;28;20043;-88
2021/08/14 19:42:39;;;;;;;9.63;7.35;;;;;;;;;;10285605;28;20046;-87
2021/08/14 19:47:40;;;;;;;8.88;6.78;;;;;;;;;;10285892;28;20035;-87
2021/08/14 19:52:42;;;;;;;10.40;6.95;;;;;;;;;;10285182;28;20066;-87
2021/08/14 19:57:43;;;;;;;9.52;6.63;;;;;;;;;;10286260;28;20046;-86
2021/08/14 20:02:44;;;;;;;8.30;6.35;;;;;;;;;;10284143;28;20058;-86
2021/08/14 20:07:45;;;;;;;8.07;6.60;;;;;;;;;;10286065;28;20042;-86
2021/08/14 20:12:46;;;;;;;8.20;5.95;;;;;;;;;;10284855;28;20093;-86
2021/08/14 20:17:47;;;;;;;11.60;7.00;;;;;;;;;;10285702;28;20035;-87
2021/08/14 20:22:48;;;;;;;11.40;7.15;;;;;;;;;;10285120;28;20058;-86
2021/08/14 20:27:49;;;;;;;7.40;5.93;;;;;;;;;;10283219;28;20142;-87
2021/08/14 20:32:50;;;;;;;8.32;5.60;;;;;;;;;;10283947;28;20042;-86
2021/08/14 20:37:51;;;;;;;8.38;5.90;;;;;;;;;;10284857;28;20089;-88
2021/08/14 20:42:52;;;;;;;6.63;5.70;;;;;;;;;;10281985;28;20049;-89
2021/08/14 20:47:53;;;;;;;7.13;5.63;;;;;;;;;;10300436;28;20031;-88
2021/08/14 20:52:54;;;;;;;7.22;5.35;;;;;;;;;;10283604;28;20031;-87
2021/08/14 20:57:55;;;;;;;10.18;7.07;;;;;;;;;;10283323;28;20043;-87
2021/08/14 21:02:56;;;;;;;9.15;6.78;;;;;;;;;;10285820;28;20131;-87
2021/08/14 21:07:57;;;;;;;9.25;6.78;;;;;;;;;;10288300;28;20364;-87
2021/08/14 21:12:58;;;;;;;10.77;7.32;;;;;;;;;;10289125;28;20137;-88
2021/08/14 21:17:59;;;;;;;11.82;9.32;;;;;;;;;;10290834;28;20077;-88
2021/08/14 21:23:00;;;;;;;12.27;9.63;;;;;;;;;;10288279;28;20039;-86
2021/08/14 21:28:01;;;;;;;12.60;10.13;;;;;;;;;;10283560;28;20035;-87
2021/08/14 21:33:02;;;;;;;9.23;7.88;;;;;;;;;;10283328;28;20419;-86
2021/08/14 21:38:05;;;;;;;11.45;8.20;;;;;;;;;;10284747;28;20030;-87
2021/08/14 21:43:06;;;;;;;12.38;10.50;;;;;;;;;;10295315;28;20041;-88
2021/08/14 21:48:10;;;;;;;10.98;8.75;;;;;;;;;;10295696;28;20033;-88
2021/08/14 21:53:11;;;;;;;8.65;7.60;;;;;;;;;;10297211;28;20038;-87
2021/08/14 21:58:12;;;;;;;11.93;9.07;;;;;;;;;;10301111;28;20039;-88
2021/08/14 22:03:13;;;;;;;11.00;8.10;;;;;;;;;;10293058;28;20046;-88
2021/08/14 22:08:14;;;;;;;10.48;8.32;;;;;;;;;;10293718;28;20104;-87
2021/08/14 22:13:15;;;;;;;11.02;7.78;;;;;;;;;;10287261;28;20063;-87
2021/08/14 22:18:16;;;;;;;11.23;8.45;;;;;;;;;;10288149;28;20129;-88
2021/08/14 22:23:17;;;;;;;12.32;9.35;;;;;;;;;;10308476;28;20093;-87
2021/08/14 22:28:18;;;;;;;10.10;8.13;;;;;;;;;;10296319;28;20073;-87
2021/08/14 22:33:19;;;;;;;8.65;7.10;;;;;;;;;;10301787;28;20039;-86
2021/08/14 22:38:20;;;;;;;10.05;7.50;;;;;;;;;;10297563;28;20047;-87
2021/08/14 22:43:22;;;;;;;10.65;8.70;;;;;;;;;;10289658;28;20406;-89
2021/08/14 22:48:23;;;;;;;10.38;8.23;;;;;;;;;;10289680;28;20030;-88
2021/08/14 22:53:24;;;;;;;12.85;9.13;;;;;;;;;;10288994;28;20375;-87
2021/08/14 22:58:25;;;;;;;11.50;9.00;;;;;;;;;;10289486;28;20109;-87
2021/08/14 23:03:26;;;;;;;8.95;7.90;;;;;;;;;;10289536;28;20114;-87
2021/08/14 23:08:27;;;;;;;9.10;7.65;;;;;;;;;;10292295;28;20085;-87
2021/08/14 23:13:28;;;;;;;11.35;9.07;;;;;;;;;;10288243;28;20037;-87
2021/08/14 23:18:29;;;;;;;9.98;7.82;;;;;;;;;;10288885;28;20042;-86
2021/08/14 23:23:29;;;;;;;8.52;7.43;;;;;;;;;;10292394;28;20031;-87
2021/08/14 23:28:30;;;;;;;10.45;8.70;;;;;;;;;;10292417;28;20042;-87
2021/08/14 23:33:31;;;;;;;13.25;9.82;;;;;;;;;;10288997;28;20047;-86
2021/08/14 23:38:32;;;;;;;12.55;9.55;;;;;;;;;;10291787;28;20039;-87
2021/08/14 23:43:33;;;;;;;12.75;9.32;;;;;;;;;;10289947;28;20039;-87
2021/08/14 23:48:34;;;;;;;12.15;9.30;;;;;;;;;;10290897;28;20038;-86
2021/08/14 23:53:37;;;;;;;12.80;10.07;;;;;;;;;;10288754;28;20484;-87
2021/08/14 23:58:38;;;;;;;14.80;10.23;;;;;;;;;;10288670;28;20035;-87
